createdAt,value
2019-03-10T00:01:52.856Z,1.50
2019-03-10T00:04:24.886Z,1.73
2019-03-10T00:06:54.956Z,2.27
2019-03-10T00:09:24.984Z,2.13
2019-03-10T00:11:54.623Z,2.43
2019-03-10T00:14:24.210Z,2.40
2019-03-10T00:16:54.209Z,2.30
2019-03-10T00:19:24.108Z,1.93
2019-03-10T00:21:53.736Z,2.07
2019-03-10T00:24:23.330Z,1.67
2019-03-10T00:26:53.293Z,2.00
2019-03-10T00:29:23.627Z,1.73
2019-03-10T00:31:53.254Z,1.77
2019-03-10T00:34:23.283Z,1.90
2019-03-10T00:36:53.308Z,2.00
2019-03-10T00:39:47.054Z,2.30
2019-03-10T00:42:55.518Z,2.10
2019-03-10T00:46:04.731Z,1.67
2019-03-10T00:49:11.934Z,1.90
2019-03-10T00:52:04.340Z,1.90
2019-03-10T00:54:33.928Z,1.90
2019-03-10T00:57:03.746Z,1.87
2019-03-10T00:59:33.350Z,1.20
2019-03-10T01:02:03.412Z,1.97
2019-03-10T01:04:33.537Z,2.23
2019-03-10T01:07:03.531Z,2.07
2019-03-10T01:09:33.109Z,2.17
2019-03-10T01:12:02.742Z,1.97
2019-03-10T01:14:32.737Z,2.30
2019-03-10T01:17:03.112Z,2.00
2019-03-10T01:19:33.998Z,1.70
2019-03-10T01:22:03.637Z,2.30
2019-03-10T01:24:34.391Z,2.00
2019-03-10T01:27:04.545Z,1.70
2019-03-10T01:29:34.549Z,1.73
2019-03-10T01:32:33.589Z,1.57
2019-03-10T01:35:36.964Z,1.70
2019-03-10T01:38:06.597Z,1.50
2019-03-10T01:40:36.174Z,2.10
2019-03-10T01:43:06.349Z,1.80
2019-03-10T01:45:35.934Z,1.83
2019-03-10T01:48:05.549Z,1.77
2019-03-10T01:50:35.458Z,1.80
2019-03-10T01:53:05.093Z,1.50
2019-03-10T01:55:34.668Z,1.50
2019-03-10T01:58:04.309Z,1.10
2019-03-10T02:00:34.418Z,1.33
2019-03-10T02:03:04.409Z,1.60
2019-03-10T02:05:34.821Z,1.50
2019-03-10T02:08:04.445Z,1.67
2019-03-10T02:10:34.458Z,1.63
2019-03-10T02:13:04.545Z,1.53
2019-03-10T02:15:34.618Z,1.73
2019-03-10T02:18:04.269Z,1.70
2019-03-10T02:20:33.850Z,1.60
2019-03-10T02:23:03.929Z,1.63
2019-03-10T02:25:34.065Z,1.60
2019-03-10T02:28:03.791Z,1.50
2019-03-10T02:30:33.390Z,1.93
2019-03-10T02:33:03.028Z,1.83
2019-03-10T02:35:32.662Z,1.70
2019-03-10T02:38:02.515Z,1.73
2019-03-10T02:40:33.654Z,1.77
2019-03-10T02:43:03.985Z,1.77
2019-03-10T02:45:33.962Z,1.70
2019-03-10T02:48:03.603Z,1.40
2019-03-10T02:50:33.679Z,1.47
2019-03-10T02:53:03.831Z,1.70
2019-03-10T02:55:33.439Z,1.60
2019-03-10T02:58:03.067Z,1.70
2019-03-10T03:00:32.660Z,1.47
2019-03-10T03:03:02.284Z,1.27
2019-03-10T03:05:31.870Z,1.77
2019-03-10T03:08:01.507Z,1.40
2019-03-10T03:10:31.089Z,1.60
2019-03-10T03:13:01.166Z,1.43
2019-03-10T03:15:30.757Z,1.50
2019-03-10T03:18:00.988Z,1.37
2019-03-10T03:20:30.567Z,1.77
2019-03-10T03:23:00.722Z,1.90
2019-03-10T03:25:30.316Z,0.97
2019-03-10T03:28:00.371Z,2.00
2019-03-10T03:30:30.923Z,1.30
2019-03-10T03:33:00.589Z,1.60
2019-03-10T03:35:56.334Z,1.70
2019-03-10T03:38:50.378Z,1.47
2019-03-10T03:41:20.984Z,1.30
2019-03-10T03:43:50.967Z,1.50
2019-03-10T03:46:20.572Z,1.47
2019-03-10T03:48:50.211Z,1.70
2019-03-10T03:51:19.826Z,2.03
2019-03-10T03:53:49.465Z,1.73
2019-03-10T03:56:19.453Z,2.07
2019-03-10T03:58:49.591Z,1.60
2019-03-10T04:01:32.330Z,1.60
2019-03-10T04:04:02.434Z,1.50
2019-03-10T04:06:32.449Z,1.40
2019-03-10T04:09:02.085Z,1.10
2019-03-10T04:11:31.974Z,1.33
2019-03-10T04:14:01.624Z,1.03
2019-03-10T04:16:31.205Z,1.30
2019-03-10T04:19:03.017Z,1.17
2019-03-10T04:21:32.634Z,1.23
2019-03-10T04:24:02.270Z,1.67
2019-03-10T04:26:31.855Z,1.67
2019-03-10T04:29:01.930Z,1.80
2019-03-10T04:31:32.182Z,1.40
2019-03-10T04:34:01.843Z,1.13
2019-03-10T04:36:31.446Z,1.50
2019-03-10T04:39:02.350Z,1.40
2019-03-10T04:41:31.949Z,1.23
2019-03-10T04:44:01.535Z,1.10
2019-03-10T04:46:31.515Z,1.13
2019-03-10T04:49:03.392Z,0.97
2019-03-10T04:51:33.034Z,1.27
2019-03-10T04:54:02.624Z,1.40
2019-03-10T04:56:51.569Z,1.60
2019-03-10T04:59:21.536Z,1.53
2019-03-10T05:01:51.134Z,1.13
2019-03-10T05:04:21.319Z,1.33
2019-03-10T05:06:51.277Z,1.20
2019-03-10T05:09:21.459Z,1.00
2019-03-10T05:11:51.157Z,1.07
2019-03-10T05:14:20.814Z,1.13
2019-03-10T05:16:50.406Z,1.33
2019-03-10T05:19:20.059Z,0.93
2019-03-10T05:21:49.643Z,0.90
2019-03-10T05:24:19.556Z,1.10
2019-03-10T05:26:49.180Z,1.00
2019-03-10T05:29:18.774Z,1.10
2019-03-10T05:31:48.413Z,1.30
2019-03-10T05:34:18.333Z,1.17
2019-03-10T05:36:48.513Z,1.20
2019-03-10T05:39:18.158Z,1.03
2019-03-10T05:41:48.233Z,1.53
2019-03-10T05:44:17.834Z,1.03
2019-03-10T05:46:47.465Z,1.00
2019-03-10T05:49:17.049Z,1.10
2019-03-10T05:51:47.119Z,1.67
2019-03-10T05:54:17.101Z,1.27
2019-03-10T05:56:46.729Z,1.20
2019-03-10T05:59:16.318Z,1.17
2019-03-10T06:01:46.271Z,1.13
2019-03-10T06:04:15.847Z,1.33
2019-03-10T06:06:45.472Z,1.20
2019-03-10T06:09:15.210Z,1.47
2019-03-10T06:11:44.841Z,1.23
2019-03-10T06:14:14.481Z,1.20
2019-03-10T06:16:44.118Z,1.20
2019-03-10T06:19:13.702Z,1.17
2019-03-10T06:21:43.490Z,1.13
2019-03-10T06:24:13.566Z,1.07
2019-03-10T06:26:43.194Z,1.07
2019-03-10T06:29:12.784Z,1.00
2019-03-10T06:31:42.429Z,0.83
2019-03-10T06:34:12.020Z,0.87
2019-03-10T06:36:41.649Z,0.80
2019-03-10T06:39:12.229Z,0.87
2019-03-10T06:41:42.345Z,0.90
2019-03-10T06:44:11.991Z,0.93
2019-03-10T06:46:41.600Z,1.10
2019-03-10T06:49:11.202Z,0.67
2019-03-10T06:51:40.809Z,0.73
2019-03-10T06:54:11.523Z,0.50
2019-03-10T06:56:41.168Z,0.67
2019-03-10T06:59:11.185Z,0.70
2019-03-10T07:01:40.813Z,0.53
2019-03-10T07:04:10.406Z,0.70
2019-03-10T07:06:40.039Z,0.50
2019-03-10T07:09:10.027Z,0.70
2019-03-10T07:11:39.653Z,0.40
2019-03-10T07:14:09.244Z,0.70
2019-03-10T07:16:39.004Z,0.80
2019-03-10T07:19:08.972Z,0.73
2019-03-10T07:21:39.241Z,0.50
2019-03-10T07:24:09.290Z,0.70
2019-03-10T07:26:38.919Z,0.77
2019-03-10T07:29:22.816Z,0.80
2019-03-10T07:32:10.116Z,0.70
2019-03-10T07:34:48.060Z,0.40
2019-03-10T07:37:42.783Z,0.40
2019-03-10T07:40:30.013Z,0.57
2019-03-10T07:43:21.873Z,0.73
2019-03-10T07:46:08.943Z,0.50
2019-03-10T07:49:03.450Z,0.50
2019-03-10T07:51:48.003Z,0.70
2019-03-10T07:54:35.441Z,0.60
2019-03-10T07:57:16.103Z,0.70
2019-03-10T08:00:07.636Z,0.90
2019-03-10T08:02:58.989Z,1.00
2019-03-10T08:05:50.588Z,1.03
2019-03-10T08:08:32.549Z,0.70
2019-03-10T08:11:24.935Z,1.00
2019-03-10T08:14:06.232Z,0.70
2019-03-10T08:16:58.301Z,0.60
2019-03-10T08:19:36.475Z,0.50
2019-03-10T08:22:24.085Z,0.57
2019-03-10T08:25:04.256Z,0.67
2019-03-10T08:28:01.569Z,0.87
2019-03-10T08:30:52.071Z,0.60
2019-03-10T08:33:52.685Z,0.93
2019-03-10T08:36:41.637Z,0.90
2019-03-10T08:39:18.274Z,0.70
2019-03-10T08:41:57.447Z,0.63
2019-03-10T08:44:49.646Z,0.80
2019-03-10T08:47:28.701Z,0.67
2019-03-10T08:50:06.267Z,0.80
2019-03-10T08:52:57.110Z,1.03
2019-03-10T08:55:45.123Z,0.80
2019-03-10T08:58:32.592Z,0.80
2019-03-10T09:01:36.135Z,0.60
2019-03-10T09:04:23.977Z,0.80
2019-03-10T09:07:14.410Z,0.80
2019-03-10T09:10:09.159Z,0.90
2019-03-10T09:12:54.369Z,1.03
2019-03-10T09:15:34.486Z,0.87
2019-03-10T09:18:36.601Z,0.67
2019-03-10T09:21:28.071Z,0.60
2019-03-10T09:24:15.191Z,0.67
2019-03-10T09:27:21.769Z,0.57
2019-03-10T09:30:05.610Z,0.47
2019-03-10T09:32:46.017Z,0.67
2019-03-10T09:35:23.264Z,0.60
2019-03-10T09:38:03.513Z,0.60
2019-03-10T09:41:06.878Z,0.70
2019-03-10T09:44:03.733Z,0.60
2019-03-10T09:46:41.559Z,0.60
2019-03-10T09:49:33.105Z,0.60
2019-03-10T09:52:22.074Z,0.50
2019-03-10T09:55:29.442Z,0.23
2019-03-10T09:58:15.678Z,0.50
2019-03-10T10:01:10.583Z,0.43
2019-03-10T10:03:52.870Z,0.17
2019-03-10T10:06:50.235Z,0.30
2019-03-10T10:09:38.717Z,0.40
2019-03-10T10:12:27.165Z,0.30
2019-03-10T10:15:27.921Z,0.27
2019-03-10T10:18:10.818Z,0.47
2019-03-10T10:20:49.562Z,0.27
2019-03-10T10:23:41.417Z,0.30
2019-03-10T10:26:29.867Z,0.40
2019-03-10T10:29:34.541Z,0.30
2019-03-10T10:32:21.683Z,0.30
2019-03-10T10:35:16.232Z,0.30
2019-03-10T10:38:03.257Z,0.33
2019-03-10T10:40:47.270Z,0.40
2019-03-10T10:43:36.242Z,0.23
2019-03-10T10:46:21.577Z,0.67
2019-03-10T10:49:16.200Z,0.53
2019-03-10T10:52:01.419Z,0.40
2019-03-10T10:54:50.861Z,0.57
2019-03-10T10:57:42.187Z,1.03
2019-03-10T11:00:19.979Z,2.37
2019-03-10T11:02:55.688Z,1.10
2019-03-10T11:05:45.194Z,0.47
2019-03-10T11:08:36.812Z,0.50
2019-03-10T11:11:21.949Z,0.40
2019-03-10T11:14:28.814Z,0.37
2019-03-10T11:17:20.273Z,0.33
2019-03-10T11:20:11.809Z,0.27
2019-03-10T11:23:12.289Z,0.27
2019-03-10T11:26:01.101Z,0.20
2019-03-10T11:29:02.653Z,0.23
2019-03-10T11:31:39.389Z,0.20
2019-03-10T11:34:34.042Z,0.10
2019-03-10T11:37:25.534Z,0.30
2019-03-10T11:40:23.102Z,0.20
2019-03-10T11:43:11.555Z,0.37
2019-03-10T11:46:18.753Z,0.10
2019-03-10T11:49:01.158Z,0.20
2019-03-10T11:51:39.009Z,0.40
2019-03-10T11:54:19.394Z,0.20
2019-03-10T11:56:58.498Z,0.20
2019-03-10T11:59:33.298Z,0.13
2019-03-10T12:02:16.546Z,0.10
2019-03-10T12:05:14.229Z,0.30
2019-03-10T12:07:54.995Z,0.10
2019-03-10T12:10:24.642Z,0.17
2019-03-10T12:12:54.268Z,0.30
2019-03-10T12:15:23.899Z,0.20
2019-03-10T12:17:53.513Z,0.30
2019-03-10T12:20:23.639Z,0.20
2019-03-10T12:22:53.699Z,0.27
2019-03-10T12:25:23.337Z,0.40
2019-03-10T12:27:53.257Z,0.20
2019-03-10T12:30:22.905Z,0.30
2019-03-10T12:32:52.526Z,0.27
2019-03-10T12:35:33.653Z,0.20
2019-03-10T12:37:54.300Z,0.20
2019-03-10T12:40:24.471Z,0.20
2019-03-10T12:42:54.426Z,0.30
2019-03-10T12:45:27.008Z,0.20
2019-03-10T12:47:56.601Z,0.30
2019-03-10T12:50:26.673Z,0.30
2019-03-10T12:52:56.864Z,0.20
2019-03-10T12:55:26.492Z,0.20
2019-03-10T12:57:56.577Z,0.20
2019-03-10T13:00:26.588Z,0.20
2019-03-10T13:02:56.142Z,0.10
2019-03-10T13:05:28.214Z,0.30
2019-03-10T13:07:57.429Z,0.47
2019-03-10T13:10:27.854Z,0.10
2019-03-10T13:12:57.801Z,0.10
2019-03-10T13:15:27.444Z,0.40
2019-03-10T13:17:57.071Z,0.30
2019-03-10T13:20:28.451Z,0.30
2019-03-10T13:22:58.761Z,0.27
2019-03-10T13:25:29.281Z,0.30
2019-03-10T13:27:59.387Z,0.27
2019-03-10T13:30:29.949Z,0.20
2019-03-10T13:32:59.545Z,0.30
2019-03-10T13:35:29.209Z,0.10
2019-03-10T13:37:58.806Z,0.17
2019-03-10T13:40:31.902Z,0.00
2019-03-10T13:43:01.533Z,0.30
2019-03-10T13:45:31.941Z,0.23
2019-03-10T13:48:01.521Z,0.20
2019-03-10T13:50:31.547Z,0.20
2019-03-10T13:53:01.187Z,0.40
2019-03-10T13:55:31.118Z,0.20
2019-03-10T13:58:01.194Z,0.60
2019-03-10T14:00:30.803Z,0.20
2019-03-10T14:03:00.891Z,0.27
2019-03-10T14:05:30.454Z,0.37
2019-03-10T14:08:00.589Z,0.30
2019-03-10T14:10:30.174Z,0.60
2019-03-10T14:13:00.132Z,0.40
2019-03-10T14:15:30.092Z,0.60
2019-03-10T14:17:59.718Z,0.70
2019-03-10T14:20:29.650Z,0.40
2019-03-10T14:22:59.281Z,0.50
2019-03-10T14:25:28.897Z,0.33
2019-03-10T14:27:58.547Z,0.40
2019-03-10T14:30:28.129Z,0.30
2019-03-10T14:32:58.853Z,0.60
2019-03-10T14:35:29.190Z,0.80
2019-03-10T14:37:59.614Z,0.60
2019-03-10T14:40:30.619Z,0.70
2019-03-10T14:43:00.258Z,0.50
2019-03-10T14:45:30.391Z,0.60
2019-03-10T14:48:00.018Z,1.07
2019-03-10T14:50:29.984Z,0.60
2019-03-10T14:53:00.146Z,0.80
2019-03-10T14:55:30.136Z,0.90
2019-03-10T14:58:00.150Z,1.03
2019-03-10T15:00:30.261Z,1.13
2019-03-10T15:03:00.679Z,0.70
2019-03-10T15:05:30.273Z,0.80
2019-03-10T15:07:59.911Z,1.00
2019-03-10T15:10:29.510Z,0.90
2019-03-10T15:12:59.586Z,0.90
2019-03-10T15:15:30.083Z,1.10
2019-03-10T15:18:09.779Z,0.90
2019-03-10T15:20:46.590Z,0.90
2019-03-10T15:23:17.334Z,0.90
2019-03-10T15:25:56.338Z,0.97
2019-03-10T15:28:26.641Z,1.20
2019-03-10T15:30:56.682Z,1.40
2019-03-10T15:33:27.603Z,0.90
2019-03-10T15:35:57.189Z,1.00
2019-03-10T15:38:26.821Z,0.90
2019-03-10T15:40:56.495Z,0.77
2019-03-10T15:43:26.149Z,1.03
2019-03-10T15:45:56.502Z,0.90
2019-03-10T15:48:26.581Z,1.03
2019-03-10T15:50:56.723Z,1.17
2019-03-10T15:53:26.357Z,1.67
2019-03-10T15:55:56.400Z,1.40
2019-03-10T15:58:27.411Z,1.30
2019-03-10T16:00:57.422Z,1.33
2019-03-10T16:03:27.731Z,1.20
2019-03-10T16:05:57.275Z,1.43
2019-03-10T16:08:27.254Z,1.10
2019-03-10T16:10:57.833Z,1.20
2019-03-10T16:13:28.226Z,0.97
2019-03-10T16:15:58.645Z,1.60
2019-03-10T16:18:29.266Z,1.00
2019-03-10T16:20:59.314Z,1.33
2019-03-10T16:23:28.983Z,1.63
2019-03-10T16:26:00.197Z,1.30
2019-03-10T16:28:30.141Z,1.20
2019-03-10T16:31:00.526Z,1.20
2019-03-10T16:33:30.633Z,1.60
2019-03-10T16:36:00.705Z,1.40
2019-03-10T16:38:30.342Z,1.77
2019-03-10T16:41:00.436Z,1.90
2019-03-10T16:43:30.612Z,1.40
2019-03-10T16:46:00.527Z,2.13
2019-03-10T16:48:30.207Z,1.53
2019-03-10T16:51:00.163Z,1.43
2019-03-10T16:53:29.908Z,1.50
2019-03-10T16:56:03.170Z,1.57
2019-03-10T16:58:31.280Z,1.50
2019-03-10T17:01:01.726Z,1.30
2019-03-10T17:03:31.888Z,1.60
2019-03-10T17:06:02.376Z,1.40
2019-03-10T17:08:32.833Z,1.40
2019-03-10T17:11:04.080Z,1.30
2019-03-10T17:13:33.897Z,1.30
2019-03-10T17:16:04.353Z,2.03
2019-03-10T17:18:35.417Z,1.40
2019-03-10T17:21:06.474Z,1.60
2019-03-10T17:23:37.633Z,1.50
2019-03-10T17:26:08.679Z,1.20
2019-03-10T17:28:40.567Z,1.10
2019-03-10T17:31:10.245Z,1.43
2019-03-10T17:33:41.258Z,1.70
2019-03-10T17:36:10.972Z,1.67
2019-03-10T17:38:41.415Z,1.60
2019-03-10T17:41:11.423Z,1.50
2019-03-10T17:43:42.124Z,1.70
2019-03-10T17:46:12.222Z,1.57
2019-03-10T17:48:42.436Z,1.30
2019-03-10T17:51:13.271Z,1.30
2019-03-10T17:53:45.043Z,1.60
2019-03-10T17:56:16.431Z,1.40
2019-03-10T17:58:49.134Z,1.63
2019-03-10T18:01:21.868Z,1.13
2019-03-10T18:03:52.760Z,1.27
2019-03-10T18:06:25.197Z,1.30
2019-03-10T18:08:55.589Z,1.43
2019-03-10T18:11:26.753Z,1.30
2019-03-10T18:13:57.623Z,1.10
2019-03-10T18:16:27.743Z,1.07
2019-03-10T18:18:58.075Z,0.90
2019-03-10T18:21:28.159Z,1.00
2019-03-10T18:23:59.168Z,1.20
2019-03-10T18:26:28.750Z,1.37
2019-03-10T18:28:58.762Z,1.10
2019-03-10T18:31:28.810Z,1.20
2019-03-10T18:33:59.485Z,1.10
2019-03-10T18:36:29.678Z,1.20
2019-03-10T18:39:00.157Z,1.20
2019-03-10T18:41:29.902Z,1.30
2019-03-10T18:43:59.545Z,1.70
2019-03-10T18:46:29.649Z,1.63
2019-03-10T18:49:00.366Z,1.10
2019-03-10T18:51:30.403Z,1.30
2019-03-10T18:54:00.563Z,0.80
2019-03-10T18:56:31.382Z,1.37
2019-03-10T18:59:01.065Z,1.10
2019-03-10T19:01:31.837Z,1.10
2019-03-10T19:04:01.474Z,1.10
2019-03-10T19:06:31.496Z,1.37
2019-03-10T19:09:01.335Z,1.30
2019-03-10T19:11:30.903Z,1.17
2019-03-10T19:14:01.057Z,0.80
2019-03-10T19:16:31.165Z,1.33
2019-03-10T19:19:01.467Z,1.40
2019-03-10T19:21:31.096Z,1.30
2019-03-10T19:24:01.122Z,1.77
2019-03-10T19:26:31.257Z,1.40
2019-03-10T19:29:00.924Z,0.90
2019-03-10T19:31:32.998Z,1.10
2019-03-10T19:34:03.289Z,1.07
2019-03-10T19:36:32.897Z,1.00
2019-03-10T19:39:02.897Z,1.00
2019-03-10T19:41:33.396Z,1.00
2019-03-10T19:44:03.029Z,0.87
2019-03-10T19:46:33.035Z,1.00
2019-03-10T19:49:02.863Z,0.90
2019-03-10T19:51:32.949Z,1.07
2019-03-10T19:54:02.609Z,0.67
2019-03-10T19:56:32.573Z,0.70
2019-03-10T19:59:02.733Z,0.77
2019-03-10T20:01:32.754Z,0.77
2019-03-10T20:04:04.020Z,1.10
2019-03-10T20:06:37.244Z,0.80
2019-03-10T20:09:09.225Z,0.93
2019-03-10T20:11:39.296Z,0.90
2019-03-10T20:14:09.224Z,0.70
2019-03-10T20:16:39.976Z,1.30
2019-03-10T20:19:09.846Z,0.97
2019-03-10T20:21:39.556Z,0.70
2019-03-10T20:24:09.736Z,0.40
2019-03-10T20:26:41.099Z,0.20
2019-03-10T20:29:11.927Z,0.30
2019-03-10T20:31:42.620Z,0.33
2019-03-10T20:34:12.242Z,0.00
2019-03-10T20:36:42.459Z,0.10
2019-03-10T20:39:12.559Z,0.30
2019-03-10T20:41:42.694Z,0.20
2019-03-10T20:44:12.305Z,0.20
2019-03-10T20:46:43.060Z,0.20
2019-03-10T20:49:12.714Z,0.20
2019-03-10T20:51:42.548Z,0.30
2019-03-10T20:54:13.289Z,0.30
2019-03-10T20:56:43.699Z,0.30
2019-03-10T20:59:13.809Z,0.60
2019-03-10T21:01:43.447Z,0.30
2019-03-10T21:04:13.473Z,0.20
2019-03-10T21:06:43.122Z,0.33
2019-03-10T21:09:13.221Z,0.50
2019-03-10T21:11:43.582Z,0.67
2019-03-10T21:14:13.574Z,0.40
2019-03-10T21:16:43.556Z,0.30
2019-03-10T21:19:13.169Z,0.67
2019-03-10T21:21:43.016Z,0.50
2019-03-10T21:24:12.600Z,0.63
2019-03-10T21:26:42.239Z,0.60
2019-03-10T21:29:12.420Z,0.40
2019-03-10T21:31:42.125Z,0.43
2019-03-10T21:34:12.549Z,0.50
2019-03-10T21:36:42.187Z,0.50
2019-03-10T21:39:13.005Z,0.90
2019-03-10T21:41:42.646Z,0.50
2019-03-10T21:44:12.233Z,0.30
2019-03-10T21:46:42.263Z,0.83
2019-03-10T21:49:11.850Z,0.50
2019-03-10T21:51:41.493Z,0.37
2019-03-10T21:54:11.604Z,0.60
2019-03-10T21:56:42.187Z,0.60
2019-03-10T21:59:12.291Z,0.60
2019-03-10T22:01:42.307Z,1.10
2019-03-10T22:04:12.346Z,0.57
2019-03-10T22:06:41.974Z,0.30
2019-03-10T22:09:12.006Z,0.53
2019-03-10T22:11:43.422Z,0.50
2019-03-10T22:14:13.017Z,0.40
2019-03-10T22:16:42.694Z,0.30
2019-03-10T22:19:22.357Z,0.47
2019-03-10T22:21:44.083Z,0.37
2019-03-10T22:24:14.174Z,0.33
2019-03-10T22:26:45.241Z,0.30
2019-03-10T22:29:15.618Z,0.60
2019-03-10T22:31:45.263Z,0.50
2019-03-10T22:34:14.833Z,0.50
2019-03-10T22:36:45.469Z,0.40
2019-03-10T22:39:15.482Z,0.57
2019-03-10T22:41:45.138Z,0.80
2019-03-10T22:44:15.258Z,0.53
2019-03-10T22:46:45.439Z,0.67
2019-03-10T22:49:15.849Z,0.70
2019-03-10T22:51:45.482Z,1.00
2019-03-10T22:54:16.063Z,0.70
2019-03-10T22:56:45.689Z,0.60
2019-03-10T22:59:15.796Z,0.93
2019-03-10T23:01:45.420Z,0.83
2019-03-10T23:04:15.510Z,0.53
2019-03-10T23:06:45.461Z,0.60
2019-03-10T23:09:15.545Z,0.67
2019-03-10T23:11:45.166Z,0.47
2019-03-10T23:14:14.767Z,0.43
2019-03-10T23:16:44.450Z,0.37
2019-03-10T23:19:14.574Z,0.50
2019-03-10T23:21:44.660Z,0.40
2019-03-10T23:24:14.672Z,0.60
2019-03-10T23:26:44.666Z,0.70
2019-03-10T23:29:14.245Z,0.63
2019-03-10T23:31:43.976Z,0.60
2019-03-10T23:34:14.009Z,0.77
2019-03-10T23:36:44.033Z,0.63
2019-03-10T23:39:13.621Z,0.43
2019-03-10T23:41:43.596Z,0.77
2019-03-10T23:44:13.176Z,1.00
2019-03-10T23:46:42.805Z,0.70
2019-03-10T23:49:12.398Z,0.40
2019-03-10T23:51:42.027Z,0.57
2019-03-10T23:54:12.097Z,0.70
2019-03-10T23:56:41.716Z,0.50
2019-03-10T23:59:11.313Z,0.87
